Admire, KS (66830)

1:29 PM CST on February 11, 2016 (GMT -0600)
Admire Annex | | Change Station
CLOSE
Current Station
Personal Weather Station
Location: Reading, KS
Elevation: 1201 ft
Nearby Weather Stations

Elev 1201 ft 38.68 °N, 96.05 °W | Updated 38 seconds ago

Clear
Clear
42.8 °F
Feels Like 41 °F
N
3.2
Wind Variable Wind from East

Today
High -- | Low -- °F
--% Chance of Precip.
Yesterday
High -- | Low -- °F
Precip. -- in
Pressure 30.25 in
Visibility 10.0 miles
Clouds Clear
Windchill 41 °F
Dew Point 26 °F
Humidity 50%
Rainfall 0.00 in
Snow Depth Not available.
7:20 AM 5:57 PM
Waxing Crescent, 14% visible
METAR KEMP 111853Z AUTO 06007KT 10SM CLR 04/M05 A3022 RMK AO2 SLP244 T00391050
Pressure 30.25 in
Visibility 10.0 miles
Clouds Clear
Windchill 41 °F
Dew Point 26 °F
Humidity 50%
Rainfall 0.00 in
Snow Depth Not available.
7:20 AM 5:57 PM
Waxing Crescent, 14% visible
METAR KEMP 111853Z AUTO 06007KT 10SM CLR 04/M05 A3022 RMK AO2 SLP244 T00391050

10-Day Weather Forecast

Almanac

Astronomy

Feb. 11, 2016 Rise Set
Actual Time
Civil Twilight
Nautical Twilight
Astronomical Twilight
Moon
Length of Visible Light
Length of Day
Tomorrow will be .
, % of the Moon is Illuminated

Today's Extremes

State Highs State Lows

Community

WunderPhotos

Upload Photos

1,892,142 photos uploaded!

WunderBlog® & News

Nearby

Air Quality

  Air Quality AQ Index Pollutant
Not available.

Snow Depth

Station Depth Elevation

Earthquake Activity

City Distance Mag. Time & Date
Minimum magnitude displayed is 2.5.

Coastal Water Temperatures

Place Temperature

Stations

Nearby Weather Stations

Station Location Temp. Windchill Dew Point Humidity Wind Precip. Elev Updated Type
                   

Watches & Warnings

There are currently no watches in effect.